Time;durP1;ratioP1;P1;durP2;ratioP2;P2;SDS_P1;SDS_P2;PMS_P1;PMS_P2;Temp;Humidity;BMP_temperature;BMP_pressure;BME280_temperature;BME280_humidity;BME280_pressure;Samples;Min_cycle;Max_cycle;Signal;HPM_P1;HPM_P2
2023/09/11 00:02:03;;;;;;;;;;;16.90;73.00;;;;;;4076129;28;20523;-83
2023/09/11 00:04:24;;;;;;;;;;;17.00;73.00;;;;;;4076465;29;19958;-83
2023/09/11 00:06:44;;;;;;;;;;;17.00;73.30;;;;;;4075665;29;19981;-82
2023/09/11 00:09:05;;;;;;;;;;;17.00;73.10;;;;;;4078070;29;19966;-83
2023/09/11 00:11:26;;;;;;;;;;;17.00;72.90;;;;;;4080191;29;19925;-82
2023/09/11 00:13:46;;;;;;;;;;;17.00;73.00;;;;;;4080915;29;19919;-82
2023/09/11 00:16:07;;;;;;;;;;;17.00;73.00;;;;;;4083785;29;19915;-82
2023/09/11 00:18:27;;;;;;;;;;;17.00;73.10;;;;;;4080048;29;20191;-82
2023/09/11 00:20:48;;;;;;;;;;;17.00;73.30;;;;;;4076709;29;19955;-82
2023/09/11 00:23:08;;;;;;;;;;;17.00;73.30;;;;;;4075482;29;19921;-82
2023/09/11 00:25:29;;;;;;;;;;;17.00;73.40;;;;;;4074189;29;19998;-82
2023/09/11 00:27:50;;;;;;;;;;;17.10;73.60;;;;;;4077147;29;19946;-84
2023/09/11 00:30:10;;;;;;;;;;;17.00;73.40;;;;;;4077748;29;19974;-83
2023/09/11 00:32:31;;;;;;;;;;;17.00;73.40;;;;;;4076863;29;19966;-82
2023/09/11 00:34:51;;;;;;;;;;;17.00;73.50;;;;;;4074681;29;19926;-83
2023/09/11 00:37:12;;;;;;;;;;;17.00;74.40;;;;;;4089575;28;19921;-82
2023/09/11 00:39:32;;;;;;;;;;;17.10;73.70;;;;;;4087997;28;19918;-83
2023/09/11 00:41:53;;;;;;;;;;;17.00;74.20;;;;;;4087334;28;19918;-81
2023/09/11 00:44:14;;;;;;;;;;;17.00;73.90;;;;;;4075303;29;19923;-82
2023/09/11 00:46:35;;;;;;;;;;;17.00;73.50;;;;;;4088036;28;19986;-82
2023/09/11 00:48:55;;;;;;;;;;;17.00;73.50;;;;;;4076089;29;19923;-82
2023/09/11 00:51:16;;;;;;;;;;;17.10;73.60;;;;;;4064520;29;19930;-82
2023/09/11 00:53:37;;;;;;;;;;;17.00;73.50;;;;;;4075067;29;19977;-83
2023/09/11 00:55:57;;;;;;;;;;;17.00;73.40;;;;;;4073398;29;20033;-82
2023/09/11 00:58:18;;;;;;;;;;;17.00;73.80;;;;;;4075368;29;19923;-83
2023/09/11 01:00:39;;;;;;;;;;;17.00;73.90;;;;;;4076088;29;20156;-83
2023/09/11 01:02:59;;;;;;;;;;;17.00;74.00;;;;;;4072796;29;19982;-83
2023/09/11 01:05:21;;;;;;;;;;;17.00;74.30;;;;;;4075301;29;20014;-82
2023/09/11 01:07:42;;;;;;;;;;;17.00;74.10;;;;;;4087369;28;19921;-82
2023/09/11 01:10:06;;;;;;;;;;;17.00;74.00;;;;;;4086459;28;19914;-82
2023/09/11 01:12:25;;;;;;;;;;;17.00;73.90;;;;;;4073245;29;20407;-82
2023/09/11 01:14:44;;;;;;;;;;;17.00;74.10;;;;;;4072928;29;19974;-82
2023/09/11 01:17:09;;;;;;;;;;;17.00;74.80;;;;;;4076660;29;20014;-82
2023/09/11 01:19:34;;;;;;;;;;;17.00;73.90;;;;;;4078319;29;19925;-83
2023/09/11 01:22:10;;;;;;;;;;;17.00;74.70;;;;;;4083912;28;19956;-81
2023/09/11 01:24:29;;;;;;;;;;;16.90;74.00;;;;;;4072645;29;19963;-82
2023/09/11 01:27:07;;;;;;;;;;;16.90;74.30;;;;;;4075914;29;20015;-83
2023/09/11 01:29:28;;;;;;;;;;;16.90;74.30;;;;;;4089655;28;19921;-82
2023/09/11 01:31:48;;;;;;;;;;;17.00;74.50;;;;;;4078138;29;19930;-82
2023/09/11 01:34:07;;;;;;;;;;;16.90;74.60;;;;;;4077919;29;19969;-83
2023/09/11 01:36:29;;;;;;;;;;;16.90;74.80;;;;;;4074983;29;19921;-82
2023/09/11 01:38:48;;;;;;;;;;;17.00;75.80;;;;;;4075032;29;21989;-83
2023/09/11 01:41:08;;;;;;;;;;;17.00;75.30;;;;;;4074229;29;20040;-83
2023/09/11 01:43:31;;;;;;;;;;;17.00;76.20;;;;;;4073092;29;19939;-84
2023/09/11 01:45:50;;;;;;;;;;;17.00;75.50;;;;;;4081710;29;19974;-82
2023/09/11 01:48:34;;;;;;;;;;;17.00;75.60;;;;;;4097403;28;20122;-85
2023/09/11 01:50:54;;;;;;;;;;;17.00;76.20;;;;;;4077447;29;19925;-82
2023/09/11 01:53:13;;;;;;;;;;;17.10;75.50;;;;;;4078339;29;19951;-83
2023/09/11 01:55:32;;;;;;;;;;;17.10;75.40;;;;;;4074487;29;20495;-83
2023/09/11 01:57:52;;;;;;;;;;;17.10;75.30;;;;;;4075405;29;20018;-82
2023/09/11 02:00:11;;;;;;;;;;;17.10;75.20;;;;;;4073062;29;19973;-83
2023/09/11 02:02:31;;;;;;;;;;;17.10;75.30;;;;;;4074992;29;19930;-82
2023/09/11 02:04:50;;;;;;;;;;;17.10;76.30;;;;;;4071524;28;19998;-82
2023/09/11 02:07:09;;;;;;;;;;;17.10;76.00;;;;;;4071201;29;20391;-84
2023/09/11 02:09:28;;;;;;;;;;;17.10;76.20;;;;;;4075309;29;20300;-82
2023/09/11 02:11:47;;;;;;;;;;;17.20;75.90;;;;;;4077009;29;20005;-83
2023/09/11 02:14:07;;;;;;;;;;;17.10;76.20;;;;;;4076923;29;19925;-84
2023/09/11 02:16:26;;;;;;;;;;;17.20;76.10;;;;;;4077254;29;19925;-82
2023/09/11 02:18:45;;;;;;;;;;;17.20;76.00;;;;;;4076194;29;19926;-83
2023/09/11 02:21:05;;;;;;;;;;;17.30;76.60;;;;;;4072668;29;20056;-84
2023/09/11 02:23:24;;;;;;;;;;;17.20;76.40;;;;;;4070350;29;19929;-83
2023/09/11 02:25:43;;;;;;;;;;;17.20;77.50;;;;;;4082890;28;20058;-83
2023/09/11 02:28:03;;;;;;;;;;;17.20;77.30;;;;;;4087415;28;19949;-83
2023/09/11 02:30:22;;;;;;;;;;;17.20;76.50;;;;;;4078192;29;19930;-83
2023/09/11 02:32:41;;;;;;;;;;;17.20;76.30;;;;;;4076789;29;19930;-83
2023/09/11 02:35:01;;;;;;;;;;;17.20;76.10;;;;;;4075824;29;19947;-83
2023/09/11 02:37:21;;;;;;;;;;;17.20;76.30;;;;;;4085343;28;20494;-83
2023/09/11 02:39:40;;;;;;;;;;;17.20;76.50;;;;;;4071269;29;19930;-83
2023/09/11 02:41:59;;;;;;;;;;;17.20;76.90;;;;;;4074476;29;20262;-83
2023/09/11 02:44:18;;;;;;;;;;;17.30;76.50;;;;;;4077083;29;19926;-84
2023/09/11 02:46:37;;;;;;;;;;;17.30;77.30;;;;;;4074065;29;19931;-84
2023/09/11 02:48:57;;;;;;;;;;;17.30;78.10;;;;;;4071740;29;20431;-84
2023/09/11 02:51:17;;;;;;;;;;;17.20;77.50;;;;;;4073401;29;19929;-83
2023/09/11 02:53:36;;;;;;;;;;;17.30;77.20;;;;;;4074052;29;19925;-83
2023/09/11 02:55:55;;;;;;;;;;;17.20;76.90;;;;;;4069047;29;19922;-83
2023/09/11 02:58:15;;;;;;;;;;;17.20;76.60;;;;;;4074734;29;20017;-83
2023/09/11 03:00:34;;;;;;;;;;;17.20;76.80;;;;;;4072344;29;19930;-83
2023/09/11 03:02:54;;;;;;;;;;;17.20;76.80;;;;;;4072997;29;20677;-83
2023/09/11 03:05:13;;;;;;;;;;;17.20;77.40;;;;;;4074381;29;19933;-84
2023/09/11 03:07:32;;;;;;;;;;;17.20;78.00;;;;;;4070508;29;19965;-83
2023/09/11 03:09:51;;;;;;;;;;;17.20;77.10;;;;;;4072483;29;19926;-83
2023/09/11 03:12:11;;;;;;;;;;;17.20;77.10;;;;;;4073291;29;20312;-84
2023/09/11 03:14:30;;;;;;;;;;;17.30;77.00;;;;;;4075134;29;20356;-84
2023/09/11 03:16:50;;;;;;;;;;;17.20;76.90;;;;;;4071867;29;20015;-83
2023/09/11 03:19:09;;;;;;;;;;;17.20;78.00;;;;;;4075147;29;19982;-84
2023/09/11 03:21:28;;;;;;;;;;;17.20;76.80;;;;;;4089215;29;20552;-84
2023/09/11 03:23:48;;;;;;;;;;;17.20;76.80;;;;;;4074872;29;19922;-86
2023/09/11 03:26:14;;;;;;;;;;;17.20;77.60;;;;;;4069379;29;19926;-86
2023/09/11 03:28:33;;;;;;;;;;;17.20;77.20;;;;;;4073116;29;19925;-85
2023/09/11 03:30:52;;;;;;;;;;;17.30;77.00;;;;;;4072933;29;19965;-84
2023/09/11 03:33:12;;;;;;;;;;;17.20;77.00;;;;;;4072590;29;19926;-85
2023/09/11 03:35:31;;;;;;;;;;;17.20;77.80;;;;;;4086922;28;19925;-86
2023/09/11 03:37:51;;;;;;;;;;;17.20;77.20;;;;;;4078471;29;20026;-85
2023/09/11 03:40:14;;;;;;;;;;;17.20;77.10;;;;;;4078074;29;20007;-85
2023/09/11 03:42:34;;;;;;;;;;;17.20;76.90;;;;;;4090808;28;19922;-85
2023/09/11 03:44:57;;;;;;;;;;;17.20;77.10;;;;;;4079576;29;19998;-84
2023/09/11 03:47:16;;;;;;;;;;;17.20;77.00;;;;;;4073289;29;20411;-85
2023/09/11 03:49:38;;;;;;;;;;;17.20;77.00;;;;;;4078083;29;20513;-85
2023/09/11 03:51:57;;;;;;;;;;;17.30;77.00;;;;;;4085431;28;20085;-86
2023/09/11 03:54:05;;;;;;;;;;;17.20;76.80;;;;;;4079195;29;19923;-86
2023/09/11 03:56:05;;;;;;;;;;;17.20;76.80;;;;;;4073380;29;19923;-85
2023/09/11 03:58:06;;;;;;;;;;;17.20;77.00;;;;;;4069705;29;22290;-86
2023/09/11 04:00:10;;;;;;;;;;;17.20;77.10;;;;;;4074379;29;20540;-86
2023/09/11 04:02:10;;;;;;;;;;;17.20;77.20;;;;;;4077897;29;20315;-86
2023/09/11 04:04:11;;;;;;;;;;;17.20;77.70;;;;;;4075299;29;19925;-85
2023/09/11 04:06:12;;;;;;;;;;;17.20;77.50;;;;;;4088120;28;19921;-87
2023/09/11 04:08:12;;;;;;;;;;;17.20;77.20;;;;;;4076662;29;19918;-87
2023/09/11 04:10:13;;;;;;;;;;;17.30;77.60;;;;;;4070505;29;19954;-87
2023/09/11 04:12:16;;;;;;;;;;;17.20;77.50;;;;;;4074256;29;20703;-85
2023/09/11 04:14:17;;;;;;;;;;;17.20;78.20;;;;;;4070785;29;19994;-85
2023/09/11 04:16:17;;;;;;;;;;;17.30;77.50;;;;;;4077255;29;19965;-85
2023/09/11 04:18:18;;;;;;;;;;;17.30;77.60;;;;;;4076684;29;19915;-86
2023/09/11 04:20:19;;;;;;;;;;;17.20;77.60;;;;;;4072747;29;19966;-86
2023/09/11 04:22:19;;;;;;;;;;;17.30;78.00;;;;;;4088469;28;19929;-85
2023/09/11 04:24:20;;;;;;;;;;;17.30;77.80;;;;;;4095870;28;19942;-86
2023/09/11 04:26:21;;;;;;;;;;;17.30;77.70;;;;;;4095240;28;19911;-85
2023/09/11 04:28:22;;;;;;;;;;;17.30;77.70;;;;;;4105256;28;19915;-85
2023/09/11 04:30:23;;;;;;;;;;;17.30;77.90;;;;;;4090493;28;19919;-86
2023/09/11 04:32:23;;;;;;;;;;;17.30;78.10;;;;;;4072154;29;20022;-86
2023/09/11 04:34:24;;;;;;;;;;;17.30;78.50;;;;;;4071652;29;20558;-86
2023/09/11 04:36:25;;;;;;;;;;;17.30;78.50;;;;;;4083194;29;20136;-86
2023/09/11 04:38:26;;;;;;;;;;;17.30;78.40;;;;;;4110334;28;19993;-86
2023/09/11 04:40:26;;;;;;;;;;;17.30;78.40;;;;;;4076738;29;20050;-85
2023/09/11 04:42:27;;;;;;;;;;;17.30;78.40;;;;;;4074251;29;19970;-86
2023/09/11 04:44:30;;;;;;;;;;;17.30;78.60;;;;;;4073779;29;19986;-85
2023/09/11 04:46:31;;;;;;;;;;;17.30;78.60;;;;;;4073073;29;19930;-84
2023/09/11 04:48:32;;;;;;;;;;;17.40;78.50;;;;;;4073034;29;19977;-87
2023/09/11 04:50:33;;;;;;;;;;;17.30;78.80;;;;;;4076396;29;19923;-89
2023/09/11 04:52:33;;;;;;;;;;;17.30;78.80;;;;;;4087308;28;19926;-89
2023/09/11 04:54:34;;;;;;;;;;;17.30;78.70;;;;;;4086565;28;20447;-87
2023/09/11 04:56:35;;;;;;;;;;;17.40;78.60;;;;;;4073727;29;19978;-86
2023/09/11 04:58:39;;;;;;;;;;;17.30;78.50;;;;;;4090291;28;19933;-86
2023/09/11 05:00:40;;;;;;;;;;;17.40;78.50;;;;;;4073990;29;19918;-86
2023/09/11 05:02:40;;;;;;;;;;;17.30;78.40;;;;;;4081539;29;19915;-86
2023/09/11 05:04:41;;;;;;;;;;;17.30;78.50;;;;;;4074850;29;19967;-85
2023/09/11 05:06:42;;;;;;;;;;;17.40;78.60;;;;;;4078275;29;20744;-86
2023/09/11 05:08:43;;;;;;;;;;;17.30;78.60;;;;;;4071986;29;20333;-87
2023/09/11 05:10:43;;;;;;;;;;;17.30;78.70;;;;;;4069195;29;20389;-88
2023/09/11 05:12:45;;;;;;;;;;;17.30;78.50;;;;;;4091019;28;19921;-85
2023/09/11 05:14:46;;;;;;;;;;;17.40;78.70;;;;;;4078863;29;19919;-85
2023/09/11 05:16:46;;;;;;;;;;;17.30;78.50;;;;;;4096330;28;20001;-85
2023/09/11 05:18:47;;;;;;;;;;;17.30;78.60;;;;;;4066932;29;19930;-86
2023/09/11 05:20:50;;;;;;;;;;;17.40;78.60;;;;;;4080140;29;19922;-84
2023/09/11 05:22:51;;;;;;;;;;;17.30;78.70;;;;;;4078127;29;19911;-85
2023/09/11 05:24:54;;;;;;;;;;;17.40;79.00;;;;;;4078218;29;19923;-83
2023/09/11 05:27:08;;;;;;;;;;;17.30;78.50;;;;;;4090962;28;19926;-84
2023/09/11 05:29:28;;;;;;;;;;;17.40;78.50;;;;;;4077338;29;19923;-84
2023/09/11 05:31:49;;;;;;;;;;;17.30;78.40;;;;;;4079619;28;19938;-86
2023/09/11 05:34:10;;;;;;;;;;;17.30;78.50;;;;;;4072566;29;20461;-85
2023/09/11 05:36:30;;;;;;;;;;;17.30;78.50;;;;;;4078914;29;20664;-84
2023/09/11 05:38:51;;;;;;;;;;;17.30;78.30;;;;;;4091460;28;19993;-85
2023/09/11 05:40:51;;;;;;;;;;;17.30;78.50;;;;;;4074939;29;19919;-84
2023/09/11 05:43:08;;;;;;;;;;;17.30;78.70;;;;;;4091968;28;19926;-85
2023/09/11 05:45:29;;;;;;;;;;;17.40;78.70;;;;;;4075264;29;20986;-84
2023/09/11 05:47:34;;;;;;;;;;;17.30;78.50;;;;;;4077589;29;19969;-85
2023/09/11 05:50:00;;;;;;;;;;;17.30;78.70;;;;;;4079043;29;19923;-84
2023/09/11 05:52:20;;;;;;;;;;;17.30;78.40;;;;;;4081236;29;20004;-84
2023/09/11 05:54:41;;;;;;;;;;;17.40;78.60;;;;;;4083506;29;19923;-85
2023/09/11 05:57:02;;;;;;;;;;;17.30;78.60;;;;;;4095358;28;19926;-84
2023/09/11 05:59:23;;;;;;;;;;;17.30;78.60;;;;;;4072762;29;20855;-84
2023/09/11 06:01:43;;;;;;;;;;;17.30;78.70;;;;;;4077969;29;20304;-84
2023/09/11 06:04:04;;;;;;;;;;;17.30;78.80;;;;;;4076493;29;19919;-83
2023/09/11 06:06:08;;;;;;;;;;;17.40;78.40;;;;;;4079192;29;19915;-85
2023/09/11 06:08:28;;;;;;;;;;;17.40;78.40;;;;;;4091450;29;20523;-83
2023/09/11 06:10:49;;;;;;;;;;;17.40;79.10;;;;;;4077075;29;19987;-84
2023/09/11 06:13:09;;;;;;;;;;;17.40;79.00;;;;;;4078470;29;20392;-85
2023/09/11 06:15:30;;;;;;;;;;;17.40;79.20;;;;;;4077500;29;20561;-85
2023/09/11 06:17:50;;;;;;;;;;;17.40;79.10;;;;;;4074605;29;19919;-83
2023/09/11 06:20:13;;;;;;;;;;;17.40;79.60;;;;;;4078093;29;20266;-85
2023/09/11 06:22:34;;;;;;;;;;;17.30;79.30;;;;;;4089952;29;20332;-84
2023/09/11 06:24:54;;;;;;;;;;;17.40;78.70;;;;;;4078833;29;20568;-83
2023/09/11 06:27:15;;;;;;;;;;;17.40;79.10;;;;;;4077437;29;19923;-83
2023/09/11 06:29:36;;;;;;;;;;;17.40;80.00;;;;;;4079728;29;19946;-84
2023/09/11 06:31:57;;;;;;;;;;;17.40;80.10;;;;;;4081382;29;19926;-84
2023/09/11 06:34:17;;;;;;;;;;;17.40;80.50;;;;;;4075871;29;20004;-85
2023/09/11 06:36:38;;;;;;;;;;;17.30;79.50;;;;;;4076246;29;20409;-84
2023/09/11 06:38:58;;;;;;;;;;;17.40;79.80;;;;;;4077309;29;20377;-84
2023/09/11 06:41:19;;;;;;;;;;;17.40;79.60;;;;;;4078493;29;19974;-84
2023/09/11 06:43:39;;;;;;;;;;;17.40;80.00;;;;;;4076901;29;20005;-85
2023/09/11 06:46:00;;;;;;;;;;;17.40;80.00;;;;;;4077540;29;19915;-84
2023/09/11 06:48:21;;;;;;;;;;;17.40;80.10;;;;;;4076005;29;19937;-85
2023/09/11 06:50:41;;;;;;;;;;;17.40;80.00;;;;;;4090744;28;19918;-84
2023/09/11 06:53:02;;;;;;;;;;;17.40;79.90;;;;;;4082036;29;19934;-84
2023/09/11 06:55:23;;;;;;;;;;;17.50;80.10;;;;;;4079869;29;19919;-85
2023/09/11 06:57:54;;;;;;;;;;;17.50;79.90;;;;;;4077845;29;20286;-83
2023/09/11 07:00:15;;;;;;;;;;;17.50;79.90;;;;;;4074845;29;20138;-83
2023/09/11 07:02:35;;;;;;;;;;;17.50;80.10;;;;;;4091375;28;19923;-84
2023/09/11 07:04:56;;;;;;;;;;;17.60;80.10;;;;;;4077409;29;19938;-85
2023/09/11 07:07:16;;;;;;;;;;;17.60;80.00;;;;;;4077829;29;20041;-84
2023/09/11 07:09:37;;;;;;;;;;;17.60;80.60;;;;;;4076854;29;19988;-83
2023/09/11 07:11:57;;;;;;;;;;;17.60;80.40;;;;;;4082888;29;19914;-83
2023/09/11 07:14:21;;;;;;;;;;;17.60;80.30;;;;;;4078219;29;19919;-84
2023/09/11 07:16:42;;;;;;;;;;;17.70;80.30;;;;;;4082399;29;19922;-84
2023/09/11 07:19:02;;;;;;;;;;;17.70;80.30;;;;;;4084320;29;19937;-84
2023/09/11 07:21:23;;;;;;;;;;;17.80;80.20;;;;;;4086271;28;20005;-83
2023/09/11 07:23:44;;;;;;;;;;;17.80;80.90;;;;;;4083408;29;19927;-83
2023/09/11 07:26:04;;;;;;;;;;;17.80;81.20;;;;;;4094459;29;19926;-82
2023/09/11 07:28:26;;;;;;;;;;;17.90;80.90;;;;;;4090641;28;20538;-84
2023/09/11 07:30:47;;;;;;;;;;;17.90;80.70;;;;;;4083690;29;19919;-83
2023/09/11 07:33:09;;;;;;;;;;;17.90;81.00;;;;;;4088275;29;19923;-83
2023/09/11 07:35:29;;;;;;;;;;;18.00;80.70;;;;;;4089577;29;20062;-84
2023/09/11 07:37:50;;;;;;;;;;;18.00;80.50;;;;;;4085691;29;19930;-83
2023/09/11 07:40:10;;;;;;;;;;;18.10;80.40;;;;;;4078409;29;19922;-84
2023/09/11 07:42:31;;;;;;;;;;;18.10;80.40;;;;;;4082514;28;19979;-83
2023/09/11 07:44:51;;;;;;;;;;;18.10;81.40;;;;;;4077250;29;19922;-82
2023/09/11 07:47:12;;;;;;;;;;;18.10;80.80;;;;;;4075865;29;19990;-83
2023/09/11 07:49:31;;;;;;;;;;;18.20;80.90;;;;;;4081829;29;19922;-83
2023/09/11 07:51:50;;;;;;;;;;;18.20;80.90;;;;;;4081349;29;20288;-83
2023/09/11 07:54:09;;;;;;;;;;;18.30;81.00;;;;;;4076479;29;19930;-83
2023/09/11 07:56:29;;;;;;;;;;;18.40;81.00;;;;;;4081359;29;19922;-83
2023/09/11 07:58:50;;;;;;;;;;;18.40;81.80;;;;;;4081677;29;19934;-82
2023/09/11 08:01:09;;;;;;;;;;;18.50;81.00;;;;;;4078324;29;20293;-83
2023/09/11 08:03:31;;;;;;;;;;;18.60;80.80;;;;;;4091959;28;19968;-82
2023/09/11 08:05:50;;;;;;;;;;;18.60;81.60;;;;;;4080526;29;19925;-83
2023/09/11 08:08:09;;;;;;;;;;;18.70;82.40;;;;;;4079848;29;20345;-83
2023/09/11 08:10:29;;;;;;;;;;;18.70;81.50;;;;;;4079308;29;19986;-79
2023/09/11 08:12:48;;;;;;;;;;;18.80;81.50;;;;;;4079569;29;20066;-83
2023/09/11 08:15:07;;;;;;;;;;;18.90;81.50;;;;;;4077165;29;20279;-84
2023/09/11 08:17:27;;;;;;;;;;;18.90;82.40;;;;;;4093044;28;19922;-83
2023/09/11 08:19:47;;;;;;;;;;;19.00;81.90;;;;;;4082580;29;19961;-82
2023/09/11 08:22:06;;;;;;;;;;;19.10;83.20;;;;;;4077826;29;19929;-83
2023/09/11 08:24:25;;;;;;;;;;;19.10;82.20;;;;;;4076893;29;20490;-82
2023/09/11 08:26:44;;;;;;;;;;;19.20;81.90;;;;;;4078759;29;19929;-83
2023/09/11 08:29:04;;;;;;;;;;;19.30;82.00;;;;;;4076541;29;20559;-82
2023/09/11 08:31:23;;;;;;;;;;;19.30;82.10;;;;;;4082006;29;19925;-83
2023/09/11 08:33:42;;;;;;;;;;;19.40;82.80;;;;;;4073991;29;20900;-83
2023/09/11 08:36:01;;;;;;;;;;;19.40;81.60;;;;;;4092441;28;20053;-82
2023/09/11 08:38:21;;;;;;;;;;;19.50;81.50;;;;;;4073070;29;19926;-83
2023/09/11 08:40:42;;;;;;;;;;;19.60;81.20;;;;;;4075555;29;19942;-83
2023/09/11 08:43:02;;;;;;;;;;;19.60;81.40;;;;;;4081250;29;20579;-83
2023/09/11 08:45:23;;;;;;;;;;;19.70;81.30;;;;;;4077553;29;20432;-82
2023/09/11 08:47:43;;;;;;;;;;;19.90;81.30;;;;;;4083489;29;19925;-83
2023/09/11 08:50:04;;;;;;;;;;;19.80;81.10;;;;;;4082301;29;19925;-83
2023/09/11 08:52:23;;;;;;;;;;;20.00;81.20;;;;;;4100505;28;20163;-82
2023/09/11 08:54:43;;;;;;;;;;;20.00;81.00;;;;;;4097694;28;20176;-83
2023/09/11 08:57:03;;;;;;;;;;;20.10;81.60;;;;;;4084872;29;20346;-83
2023/09/11 08:59:23;;;;;;;;;;;20.20;82.10;;;;;;4082942;29;19921;-83
2023/09/11 09:01:43;;;;;;;;;;;20.30;81.20;;;;;;4080444;29;19914;-83
2023/09/11 09:04:03;;;;;;;;;;;20.40;81.20;;;;;;4078950;29;19928;-83
2023/09/11 09:06:22;;;;;;;;;;;20.50;81.00;;;;;;4076172;29;19983;-84
2023/09/11 09:08:42;;;;;;;;;;;20.60;80.80;;;;;;4080542;29;20109;-83
2023/09/11 09:11:02;;;;;;;;;;;20.60;80.70;;;;;;4077190;29;20520;-82
2023/09/11 09:13:21;;;;;;;;;;;20.70;80.50;;;;;;4091479;28;19925;-84
2023/09/11 09:15:41;;;;;;;;;;;20.80;79.80;;;;;;4081719;29;20364;-84
2023/09/11 09:18:00;;;;;;;;;;;20.90;79.80;;;;;;4076183;29;20412;-84
2023/09/11 09:20:20;;;;;;;;;;;21.00;79.70;;;;;;4089033;28;20312;-83
2023/09/11 09:22:52;;;;;;;;;;;21.00;79.70;;;;;;4077500;29;19965;-83
2023/09/11 09:25:14;;;;;;;;;;;21.20;79.70;;;;;;4076749;29;19973;-84
2023/09/11 09:27:35;;;;;;;;;;;21.30;79.40;;;;;;4072285;29;19926;-82
2023/09/11 09:29:54;;;;;;;;;;;21.30;79.10;;;;;;4076401;29;19950;-84
2023/09/11 09:32:14;;;;;;;;;;;21.40;78.70;;;;;;4091275;28;20016;-84
2023/09/11 09:34:34;;;;;;;;;;;21.50;77.10;;;;;;4077721;29;19921;-82
2023/09/11 09:36:54;;;;;;;;;;;21.60;77.50;;;;;;4092005;29;19917;-84
2023/09/11 09:39:13;;;;;;;;;;;21.70;78.30;;;;;;4078182;29;19922;-83
2023/09/11 09:41:32;;;;;;;;;;;21.80;77.00;;;;;;4089299;28;19925;-83
2023/09/11 09:43:54;;;;;;;;;;;21.90;77.40;;;;;;4088651;28;19921;-84
2023/09/11 09:46:18;;;;;;;;;;;21.90;78.00;;;;;;4091137;28;20183;-84
2023/09/11 09:48:37;;;;;;;;;;;22.10;77.60;;;;;;4076699;29;20398;-83
2023/09/11 09:50:57;;;;;;;;;;;22.10;74.60;;;;;;4079800;29;20021;-82
2023/09/11 09:53:24;;;;;;;;;;;22.20;72.80;;;;;;4078635;29;19937;-84
2023/09/11 09:55:43;;;;;;;;;;;22.30;74.70;;;;;;4077445;29;20051;-84
2023/09/11 09:58:03;;;;;;;;;;;22.30;69.70;;;;;;4078122;29;19973;-83
2023/09/11 10:00:22;;;;;;;;;;;22.30;71.40;;;;;;4077268;29;19922;-84
2023/09/11 10:02:42;;;;;;;;;;;22.50;71.80;;;;;;4079320;29;19961;-85
2023/09/11 10:05:02;;;;;;;;;;;22.50;71.50;;;;;;4076955;29;19922;-84
2023/09/11 10:07:41;;;;;;;;;;;22.60;72.20;;;;;;4089605;28;19925;-84
2023/09/11 10:10:17;;;;;;;;;;;22.70;73.00;;;;;;4078305;29;19941;-84
2023/09/11 10:12:36;;;;;;;;;;;22.80;72.50;;;;;;4078546;29;19982;-83
2023/09/11 10:14:56;;;;;;;;;;;22.90;70.60;;;;;;4080969;29;19961;-84
2023/09/11 10:17:15;;;;;;;;;;;22.90;68.80;;;;;;4079550;29;19929;-84
2023/09/11 10:19:34;;;;;;;;;;;23.00;71.80;;;;;;4079142;29;19926;-84
2023/09/11 10:21:53;;;;;;;;;;;23.10;69.90;;;;;;4077653;29;19970;-82
2023/09/11 10:24:12;;;;;;;;;;;23.10;70.00;;;;;;4074489;29;19943;-85
2023/09/11 10:26:45;;;;;;;;;;;23.20;70.30;;;;;;4072837;29;20384;-84
2023/09/11 10:29:06;;;;;;;;;;;23.30;69.20;;;;;;4079077;29;19957;-85
2023/09/11 10:31:28;;;;;;;;;;;23.40;68.20;;;;;;4078235;29;19943;-85
2023/09/11 10:33:54;;;;;;;;;;;23.40;69.60;;;;;;4073104;29;19947;-84
2023/09/11 10:36:14;;;;;;;;;;;23.50;68.50;;;;;;4080341;28;19909;-83
2023/09/11 10:38:33;;;;;;;;;;;23.60;71.00;;;;;;4094520;28;19921;-85
2023/09/11 10:40:54;;;;;;;;;;;23.70;70.90;;;;;;4089395;28;19987;-85
2023/09/11 10:43:14;;;;;;;;;;;23.70;71.00;;;;;;4070631;29;19961;-85
2023/09/11 10:45:34;;;;;;;;;;;23.90;71.30;;;;;;4078416;29;19921;-85
2023/09/11 10:47:53;;;;;;;;;;;24.00;71.00;;;;;;4077207;29;19982;-83
2023/09/11 10:50:14;;;;;;;;;;;24.00;67.50;;;;;;4077845;29;19982;-84
2023/09/11 10:52:34;;;;;;;;;;;24.10;66.40;;;;;;4077507;29;19930;-85
2023/09/11 10:54:53;;;;;;;;;;;24.20;67.50;;;;;;4077681;29;19981;-84
2023/09/11 10:57:12;;;;;;;;;;;24.20;68.20;;;;;;4074206;29;19970;-85
2023/09/11 10:59:31;;;;;;;;;;;24.30;68.80;;;;;;4076472;29;20412;-84
2023/09/11 11:01:51;;;;;;;;;;;24.30;67.90;;;;;;4077493;29;19974;-83
2023/09/11 11:04:12;;;;;;;;;;;24.40;68.70;;;;;;4076328;29;19969;-84
2023/09/11 11:06:35;;;;;;;;;;;24.50;69.40;;;;;;4076805;29;19970;-84
2023/09/11 11:08:55;;;;;;;;;;;24.50;66.90;;;;;;4078385;29;19921;-84
2023/09/11 11:11:22;;;;;;;;;;;24.60;66.70;;;;;;4079094;29;19929;-85
2023/09/11 11:14:01;;;;;;;;;;;24.70;67.70;;;;;;4077846;29;19934;-85
2023/09/11 11:16:20;;;;;;;;;;;24.70;65.50;;;;;;4077864;29;20064;-83
2023/09/11 11:18:40;;;;;;;;;;;24.80;66.50;;;;;;4091710;29;19926;-84
2023/09/11 11:20:59;;;;;;;;;;;24.80;62.80;;;;;;4080563;29;19977;-84
2023/09/11 11:23:18;;;;;;;;;;;24.90;64.30;;;;;;4079053;29;19921;-84
2023/09/11 11:25:40;;;;;;;;;;;24.90;63.60;;;;;;4079227;29;19926;-85
2023/09/11 11:28:06;;;;;;;;;;;24.90;64.30;;;;;;4076394;29;19987;-85
2023/09/11 11:30:26;;;;;;;;;;;24.90;63.20;;;;;;4078460;29;19978;-84
2023/09/11 11:32:47;;;;;;;;;;;24.90;63.10;;;;;;4076915;29;19981;-84
2023/09/11 11:35:30;;;;;;;;;;;24.90;63.40;;;;;;4088776;28;20002;-86
2023/09/11 11:37:52;;;;;;;;;;;24.90;64.20;;;;;;4072315;28;20049;-84
2023/09/11 11:40:13;;;;;;;;;;;24.90;64.30;;;;;;4072461;29;19930;-84
2023/09/11 11:42:32;;;;;;;;;;;24.90;64.20;;;;;;4074582;29;19922;-84
2023/09/11 11:44:52;;;;;;;;;;;24.80;63.00;;;;;;4077076;29;19934;-84
2023/09/11 11:47:12;;;;;;;;;;;24.90;64.40;;;;;;4075126;29;19933;-85
2023/09/11 11:49:31;;;;;;;;;;;24.90;64.30;;;;;;4075043;29;19970;-85
2023/09/11 11:51:50;;;;;;;;;;;24.90;64.60;;;;;;4076944;29;20050;-85
2023/09/11 11:54:19;;;;;;;;;;;24.90;63.80;;;;;;4068203;29;19934;-85
2023/09/11 11:56:38;;;;;;;;;;;24.90;63.30;;;;;;4075064;29;19941;-84
2023/09/11 11:58:58;;;;;;;;;;;24.90;63.80;;;;;;4077629;29;19962;-86
2023/09/11 12:01:17;;;;;;;;;;;24.90;64.10;;;;;;4077087;29;19994;-86
2023/09/11 12:03:46;;;;;;;;;;;24.90;63.10;;;;;;4072469;29;19918;-85
2023/09/11 12:06:06;;;;;;;;;;;24.80;63.30;;;;;;4072935;29;20043;-85
2023/09/11 12:08:25;;;;;;;;;;;24.80;63.30;;;;;;4085294;28;20640;-86
2023/09/11 12:10:48;;;;;;;;;;;24.70;65.10;;;;;;4072134;29;20011;-85
2023/09/11 12:13:10;;;;;;;;;;;24.60;65.20;;;;;;4068209;29;19925;-85
2023/09/11 12:15:11;;;;;;;;;;;24.60;64.70;;;;;;4067796;29;19938;-87
2023/09/11 12:17:11;;;;;;;;;;;24.60;64.70;;;;;;4066208;29;20111;-85
2023/09/11 12:19:13;;;;;;;;;;;24.60;64.90;;;;;;4082531;28;19918;-85
2023/09/11 12:21:13;;;;;;;;;;;24.60;65.20;;;;;;4074453;29;19918;-87
2023/09/11 12:23:16;;;;;;;;;;;24.60;65.20;;;;;;4071179;29;20714;-87
2023/09/11 12:25:20;;;;;;;;;;;24.50;65.40;;;;;;4072340;29;19922;-86
2023/09/11 12:27:20;;;;;;;;;;;24.70;65.80;;;;;;4085249;28;20520;-86
2023/09/11 12:29:21;;;;;;;;;;;24.60;65.80;;;;;;4067496;29;20021;-86
2023/09/11 12:31:22;;;;;;;;;;;24.70;66.00;;;;;;4085189;28;20585;-85
2023/09/11 12:33:34;;;;;;;;;;;24.70;65.80;;;;;;4069736;28;19950;-87
2023/09/11 12:35:55;;;;;;;;;;;24.70;65.40;;;;;;4072156;28;20017;-87
2023/09/11 12:38:15;;;;;;;;;;;24.70;65.70;;;;;;4065171;29;19958;-85
2023/09/11 12:40:16;;;;;;;;;;;24.80;65.10;;;;;;4088964;28;19919;-85
2023/09/11 12:42:37;;;;;;;;;;;24.80;65.50;;;;;;4082171;28;19918;-85
2023/09/11 12:44:58;;;;;;;;;;;24.90;65.80;;;;;;4073365;29;20037;-85
2023/09/11 12:47:00;;;;;;;;;;;24.80;65.70;;;;;;4071249;29;20616;-85
2023/09/11 12:49:21;;;;;;;;;;;24.90;66.20;;;;;;4070518;29;20432;-86
2023/09/11 12:51:42;;;;;;;;;;;24.90;65.40;;;;;;4068346;29;19990;-87
2023/09/11 12:54:03;;;;;;;;;;;24.90;65.70;;;;;;4068664;29;19927;-85
2023/09/11 12:56:24;;;;;;;;;;;25.00;65.80;;;;;;4072440;29;19931;-86
2023/09/11 12:58:44;;;;;;;;;;;25.00;65.60;;;;;;4068578;29;19970;-85
2023/09/11 13:01:05;;;;;;;;;;;25.00;65.70;;;;;;4084584;28;20017;-87
2023/09/11 13:03:26;;;;;;;;;;;25.00;65.10;;;;;;4066247;29;19923;-86
2023/09/11 13:05:46;;;;;;;;;;;25.00;65.80;;;;;;4090957;28;19989;-86
2023/09/11 13:08:08;;;;;;;;;;;25.00;64.70;;;;;;4090614;28;19922;-86
2023/09/11 13:10:28;;;;;;;;;;;25.00;65.10;;;;;;4093678;28;19911;-88
2023/09/11 13:12:49;;;;;;;;;;;25.10;65.30;;;;;;4096903;28;19994;-87
2023/09/11 13:15:10;;;;;;;;;;;25.10;65.30;;;;;;4088126;29;19919;-86
2023/09/11 13:17:30;;;;;;;;;;;25.10;65.50;;;;;;4089759;28;19923;-86
2023/09/11 13:19:51;;;;;;;;;;;25.10;65.80;;;;;;4080442;29;19918;-85